createdAt,value
2019-06-10T00:00:16.486Z,70.48
2019-06-10T00:02:50.653Z,70.89
2019-06-10T00:05:21.588Z,71.00
2019-06-10T00:07:52.497Z,71.10
2019-06-10T00:10:23.577Z,71.37
2019-06-10T00:12:55.472Z,71.38
2019-06-10T00:15:27.402Z,71.54
2019-06-10T00:18:20.886Z,71.80
2019-06-10T00:20:30.783Z,71.93
2019-06-10T00:23:02.533Z,71.95
2019-06-10T00:25:33.720Z,71.91
2019-06-10T00:28:05.811Z,71.92
2019-06-10T00:30:36.937Z,72.19
2019-06-10T00:33:08.062Z,72.44
2019-06-10T00:35:41.193Z,72.47
2019-06-10T00:38:14.411Z,72.47
2019-06-10T00:40:45.621Z,72.53
2019-06-10T00:43:16.379Z,72.48
2019-06-10T00:45:47.075Z,72.48
2019-06-10T00:48:28.307Z,72.58
2019-06-10T00:50:51.771Z,72.58
2019-06-10T00:53:22.667Z,72.57
2019-06-10T00:55:53.349Z,72.45
2019-06-10T00:58:23.795Z,72.45
2019-06-10T01:00:54.204Z,72.40
2019-06-10T01:03:25.003Z,72.50
2019-06-10T01:05:55.597Z,72.53
2019-06-10T01:08:26.472Z,72.60
2019-06-10T01:10:57.390Z,72.80
2019-06-10T01:13:27.904Z,73.19
2019-06-10T01:15:58.306Z,73.79
2019-06-10T01:18:35.671Z,74.25
2019-06-10T01:21:01.954Z,74.64
2019-06-10T01:23:32.958Z,74.79
2019-06-10T01:26:03.606Z,75.00
2019-06-10T01:28:34.124Z,75.33
2019-06-10T01:31:08.510Z,75.91
2019-06-10T01:33:37.200Z,76.46
2019-06-10T01:36:07.791Z,76.81
2019-06-10T01:38:40.810Z,77.23
2019-06-10T01:41:12.417Z,77.68
2019-06-10T01:43:44.114Z,78.02
2019-06-10T01:46:16.280Z,78.40
2019-06-10T01:48:48.559Z,78.86
2019-06-10T01:51:21.324Z,79.28
2019-06-10T01:53:51.744Z,79.52
2019-06-10T01:56:22.108Z,79.80
2019-06-10T01:58:53.513Z,80.21
2019-06-10T02:01:46.316Z,80.74
2019-06-10T02:04:18.120Z,81.06
2019-06-10T02:06:51.134Z,81.20
2019-06-10T02:09:23.166Z,81.65
2019-06-10T02:11:53.815Z,81.92
2019-06-10T02:14:24.668Z,81.97
2019-06-10T02:16:55.629Z,82.55
2019-06-10T02:19:26.329Z,82.63
2019-06-10T02:21:56.849Z,82.92
2019-06-10T02:24:27.286Z,83.27
2019-06-10T02:26:57.800Z,83.40
2019-06-10T02:29:30.624Z,83.59
2019-06-10T02:32:04.492Z,83.60
2019-06-10T02:34:34.109Z,83.59
2019-06-10T02:37:05.119Z,83.54
2019-06-10T02:39:39.070Z,83.50
2019-06-10T02:42:17.271Z,83.79
2019-06-10T02:44:46.073Z,83.87
2019-06-10T02:47:20.382Z,83.87
2019-06-10T02:49:59.113Z,83.96
2019-06-10T02:52:29.298Z,84.10
2019-06-10T02:54:53.914Z,84.21
2019-06-10T02:57:30.415Z,84.37
2019-06-10T02:59:56.472Z,84.65
2019-06-10T03:02:31.499Z,84.86
2019-06-10T03:05:00.356Z,84.87
2019-06-10T03:07:35.265Z,84.96
2019-06-10T03:10:04.756Z,84.85
2019-06-10T03:12:35.592Z,85.02
2019-06-10T03:15:06.578Z,85.27
2019-06-10T03:17:38.282Z,85.63
2019-06-10T03:20:09.183Z,85.44
2019-06-10T03:22:42.137Z,85.73
2019-06-10T03:25:13.113Z,85.31
2019-06-10T03:27:43.806Z,85.42
2019-06-10T03:30:20.574Z,85.63
2019-06-10T03:32:47.645Z,85.69
2019-06-10T03:35:19.282Z,85.42
2019-06-10T03:37:52.786Z,85.55
2019-06-10T03:40:24.964Z,85.85
2019-06-10T03:42:55.661Z,85.55
2019-06-10T03:45:28.384Z,85.76
2019-06-10T03:48:00.538Z,85.55
2019-06-10T03:50:32.462Z,85.56
2019-06-10T03:53:05.410Z,85.83
2019-06-10T03:55:35.979Z,85.93
2019-06-10T03:58:06.841Z,86.11
2019-06-10T04:00:37.645Z,86.14
2019-06-10T04:03:08.339Z,85.86
2019-06-10T04:05:38.958Z,85.84
2019-06-10T04:08:09.857Z,85.74
2019-06-10T04:10:42.887Z,85.46
2019-06-10T04:13:13.301Z,85.74
2019-06-10T04:15:44.122Z,85.62
2019-06-10T04:18:14.592Z,85.86
2019-06-10T04:20:45.067Z,85.82
2019-06-10T04:23:15.849Z,85.90
2019-06-10T04:25:46.458Z,85.90
2019-06-10T04:28:19.786Z,85.81
2019-06-10T04:30:53.071Z,86.15
2019-06-10T04:33:27.650Z,86.16
2019-06-10T04:35:58.597Z,86.40
2019-06-10T04:38:29.222Z,86.21
2019-06-10T04:41:00.056Z,85.85
2019-06-10T04:43:32.573Z,85.77
2019-06-10T04:46:04.594Z,85.88
2019-06-10T04:48:35.409Z,85.83
2019-06-10T04:51:06.098Z,85.78
2019-06-10T04:53:40.248Z,85.56
2019-06-10T04:56:12.101Z,85.70
2019-06-10T04:58:43.330Z,85.55
2019-06-10T05:01:14.199Z,85.34
2019-06-10T05:03:44.758Z,85.10
2019-06-10T05:06:16.229Z,85.12
2019-06-10T05:08:46.827Z,85.36
2019-06-10T05:11:17.398Z,85.58
2019-06-10T05:13:49.044Z,85.76
2019-06-10T05:16:19.684Z,85.54
2019-06-10T05:18:52.402Z,85.54
2019-06-10T05:21:25.017Z,85.99
2019-06-10T05:23:55.105Z,85.81
2019-06-10T05:26:27.203Z,85.56
2019-06-10T05:28:58.078Z,85.38
2019-06-10T05:31:31.014Z,85.80
2019-06-10T05:34:02.351Z,85.92
2019-06-10T05:36:34.976Z,86.02
2019-06-10T05:39:07.603Z,85.44
2019-06-10T05:41:38.569Z,85.47
2019-06-10T05:44:09.477Z,85.41
2019-06-10T05:46:39.987Z,85.17
2019-06-10T05:49:12.482Z,84.92
2019-06-10T05:51:43.498Z,84.81
2019-06-10T05:54:14.501Z,84.98
2019-06-10T05:56:45.263Z,85.26
2019-06-10T05:59:25.868Z,85.34
2019-06-10T06:01:57.173Z,85.27
2019-06-10T06:04:28.073Z,85.61
2019-06-10T06:06:58.898Z,85.93
2019-06-10T06:09:32.327Z,85.60
2019-06-10T06:12:02.590Z,85.66
2019-06-10T06:14:34.723Z,85.83
2019-06-10T06:17:05.879Z,86.72
2019-06-10T06:19:38.456Z,86.54
2019-06-10T06:22:09.944Z,86.49
2019-06-10T06:24:42.642Z,86.58
2019-06-10T06:27:13.239Z,87.15
2019-06-10T06:29:43.807Z,86.91
2019-06-10T06:32:14.365Z,86.27
2019-06-10T06:34:44.936Z,85.99
2019-06-10T06:37:15.466Z,85.87
2019-06-10T06:39:46.370Z,85.60
2019-06-10T06:42:16.871Z,85.27
2019-06-10T06:44:47.298Z,85.37
2019-06-10T06:47:17.805Z,85.39
2019-06-10T06:49:48.928Z,85.34
2019-06-10T06:52:35.367Z,85.86
2019-06-10T06:54:53.057Z,85.50
2019-06-10T06:57:23.821Z,85.43
2019-06-10T06:59:54.432Z,85.26
2019-06-10T07:02:25.635Z,86.15
2019-06-10T07:04:56.115Z,85.85
2019-06-10T07:07:27.344Z,85.82
2019-06-10T07:10:00.450Z,86.31
2019-06-10T07:12:33.749Z,86.66
2019-06-10T07:15:06.254Z,86.61
2019-06-10T07:17:39.038Z,86.58
2019-06-10T07:20:12.519Z,86.69
2019-06-10T07:22:46.262Z,86.46
2019-06-10T07:25:15.660Z,86.22
2019-06-10T07:27:46.962Z,86.37
2019-06-10T07:30:17.902Z,86.67
2019-06-10T07:32:49.264Z,86.50
2019-06-10T07:35:22.053Z,86.50
2019-06-10T07:37:53.327Z,87.15
2019-06-10T07:40:24.035Z,87.72
2019-06-10T07:42:54.733Z,87.36
2019-06-10T07:45:25.235Z,87.79
2019-06-10T07:47:55.924Z,87.60
2019-06-10T07:50:26.673Z,88.10
2019-06-10T07:52:57.158Z,88.09
2019-06-10T07:55:28.882Z,87.83
2019-06-10T07:57:59.572Z,88.09
2019-06-10T08:00:30.414Z,88.54
2019-06-10T08:03:02.442Z,88.71
2019-06-10T08:05:34.243Z,88.63
2019-06-10T08:08:05.287Z,88.41
2019-06-10T08:10:37.134Z,88.58
2019-06-10T08:13:07.861Z,88.77
2019-06-10T08:15:39.737Z,88.96
2019-06-10T08:18:12.980Z,89.10
2019-06-10T08:20:47.636Z,89.27
2019-06-10T08:23:20.429Z,89.13
2019-06-10T08:25:56.558Z,88.96
2019-06-10T08:28:24.450Z,89.00
2019-06-10T08:30:55.857Z,88.64
2019-06-10T08:33:26.865Z,89.02
2019-06-10T08:36:00.621Z,89.00
2019-06-10T08:38:32.706Z,88.77
2019-06-10T08:41:03.558Z,89.44
2019-06-10T08:43:34.542Z,89.42
2019-06-10T08:46:05.376Z,89.54
2019-06-10T08:48:37.237Z,89.63
2019-06-10T08:51:08.256Z,89.83
2019-06-10T08:53:39.473Z,89.74
2019-06-10T08:56:12.812Z,90.09
2019-06-10T08:58:46.350Z,89.90
2019-06-10T09:01:15.408Z,89.67
2019-06-10T09:03:48.834Z,89.68
2019-06-10T09:06:18.434Z,89.83
2019-06-10T09:08:51.285Z,88.71
2019-06-10T09:11:24.019Z,88.69
2019-06-10T09:13:54.801Z,89.02
2019-06-10T09:16:25.282Z,89.02
2019-06-10T09:18:56.093Z,89.23
2019-06-10T09:21:27.956Z,89.40
2019-06-10T09:24:03.497Z,89.43
2019-06-10T09:26:33.889Z,89.79
2019-06-10T09:29:05.471Z,90.02
2019-06-10T09:31:36.032Z,89.23
2019-06-10T09:34:07.568Z,89.36
2019-06-10T09:36:38.128Z,89.53
2019-06-10T09:39:08.932Z,89.33
2019-06-10T09:41:43.229Z,88.79
2019-06-10T09:44:12.908Z,89.70
2019-06-10T09:46:47.808Z,89.97
2019-06-10T09:49:19.320Z,89.72
2019-06-10T09:51:54.830Z,89.68
2019-06-10T09:54:23.340Z,89.50
2019-06-10T09:56:54.658Z,89.57
2019-06-10T09:59:25.457Z,88.63
2019-06-10T10:02:00.008Z,88.93
2019-06-10T10:04:28.562Z,89.50
2019-06-10T10:06:59.365Z,89.49
2019-06-10T10:09:33.568Z,90.08
2019-06-10T10:12:05.905Z,89.93
2019-06-10T10:14:38.108Z,89.54
2019-06-10T10:17:09.348Z,90.03
2019-06-10T10:19:40.085Z,90.25
2019-06-10T10:22:13.954Z,89.71
2019-06-10T10:24:44.576Z,89.81
2019-06-10T10:27:16.509Z,90.17
2019-06-10T10:29:50.309Z,89.91
2019-06-10T10:32:22.229Z,90.24
2019-06-10T10:34:56.273Z,90.52
2019-06-10T10:37:25.562Z,90.53
2019-06-10T10:39:57.286Z,90.51
2019-06-10T10:42:41.623Z,90.28
2019-06-10T10:45:02.672Z,90.01
2019-06-10T10:47:33.950Z,89.88
2019-06-10T10:50:05.013Z,89.70
2019-06-10T10:52:35.678Z,89.48
2019-06-10T10:55:08.868Z,88.85
2019-06-10T10:57:39.626Z,89.02
2019-06-10T11:00:12.498Z,89.29
2019-06-10T11:02:44.955Z,89.65
2019-06-10T11:05:33.774Z,89.43
2019-06-10T11:08:06.053Z,88.88
2019-06-10T11:10:37.972Z,89.14
2019-06-10T11:13:12.129Z,89.22
2019-06-10T11:15:45.781Z,89.52
2019-06-10T11:18:16.622Z,89.49
2019-06-10T11:20:47.408Z,89.24
2019-06-10T11:23:17.950Z,88.68
2019-06-10T11:25:53.191Z,88.47
2019-06-10T11:28:22.901Z,88.32
2019-06-10T11:30:56.876Z,88.18
2019-06-10T11:33:29.325Z,87.90
2019-06-10T11:36:02.657Z,88.16
2019-06-10T11:38:33.254Z,88.36
2019-06-10T11:41:04.357Z,88.28
2019-06-10T11:43:35.765Z,88.47
2019-06-10T11:46:07.626Z,88.65
2019-06-10T11:48:38.971Z,88.72
2019-06-10T11:51:12.725Z,88.66
2019-06-10T11:53:44.052Z,88.92
2019-06-10T11:56:14.508Z,88.21
2019-06-10T11:58:44.962Z,88.54
2019-06-10T12:01:16.020Z,88.54
2019-06-10T12:03:46.806Z,88.29
2019-06-10T12:06:18.672Z,88.49
2019-06-10T12:08:49.157Z,88.80
2019-06-10T12:11:22.836Z,88.72
2019-06-10T12:13:57.749Z,88.69
2019-06-10T12:18:58.629Z,89.18
2019-06-10T12:21:32.884Z,89.43
2019-06-10T12:24:02.910Z,89.57
2019-06-10T12:26:33.683Z,89.90
2019-06-10T12:29:05.828Z,90.13
2019-06-10T12:31:37.117Z,89.93
2019-06-10T12:34:08.351Z,89.88
2019-06-10T12:36:41.861Z,90.08
2019-06-10T12:39:15.680Z,90.36
2019-06-10T12:41:45.556Z,90.11
2019-06-10T12:44:16.789Z,90.34
2019-06-10T12:46:47.822Z,90.57
2019-06-10T12:49:19.007Z,90.63
2019-06-10T12:51:52.890Z,90.51
2019-06-10T12:54:23.326Z,90.71
2019-06-10T12:56:55.290Z,90.69
2019-06-10T12:59:27.157Z,90.72
2019-06-10T13:02:01.737Z,90.63
2019-06-10T13:04:31.444Z,90.94
2019-06-10T13:07:05.726Z,91.21
2019-06-10T13:09:38.475Z,91.00
2019-06-10T13:12:09.370Z,90.65
2019-06-10T13:14:42.916Z,90.61
2019-06-10T13:17:13.173Z,91.03
2019-06-10T13:19:44.202Z,91.38
2019-06-10T13:22:16.112Z,91.09
2019-06-10T13:24:47.297Z,91.08
2019-06-10T13:27:18.206Z,91.13
2019-06-10T13:29:49.153Z,91.73
2019-06-10T13:32:19.858Z,91.75
2019-06-10T13:34:52.642Z,91.11
2019-06-10T13:37:22.914Z,90.55
2019-06-10T13:39:53.433Z,90.69
2019-06-10T13:42:24.339Z,91.40
2019-06-10T13:44:54.999Z,91.62
2019-06-10T13:47:26.200Z,90.63
2019-06-10T13:49:56.905Z,90.92
2019-06-10T13:52:27.388Z,91.14
2019-06-10T13:54:58.690Z,90.94
2019-06-10T13:57:29.222Z,91.36
2019-06-10T14:00:02.740Z,91.76
2019-06-10T14:02:32.408Z,92.07
2019-06-10T14:05:08.285Z,91.75
2019-06-10T14:07:35.197Z,92.25
2019-06-10T14:10:10.829Z,91.74
2019-06-10T14:12:39.039Z,91.64
2019-06-10T14:15:12.185Z,91.65
2019-06-10T14:17:45.332Z,92.17
2019-06-10T14:20:16.286Z,91.75
2019-06-10T14:22:46.683Z,91.82
2019-06-10T14:25:18.515Z,91.68
2019-06-10T14:27:49.123Z,91.61
2019-06-10T14:30:20.017Z,91.59
2019-06-10T14:32:52.785Z,91.98
2019-06-10T14:35:22.981Z,91.97
2019-06-10T14:37:54.024Z,92.05
2019-06-10T14:40:25.725Z,91.96
2019-06-10T14:42:56.428Z,91.82
2019-06-10T14:45:26.977Z,91.90
2019-06-10T14:47:58.809Z,91.94
2019-06-10T14:50:32.413Z,91.76
2019-06-10T14:53:03.092Z,92.09
2019-06-10T14:55:34.140Z,91.93
2019-06-10T14:58:05.387Z,91.92
2019-06-10T15:00:37.388Z,91.87
2019-06-10T15:03:09.461Z,91.66
2019-06-10T15:05:43.158Z,91.84
2019-06-10T15:08:15.431Z,91.87
2019-06-10T15:10:45.397Z,91.39
2019-06-10T15:13:16.170Z,91.41
2019-06-10T15:15:47.609Z,91.54
2019-06-10T15:18:20.615Z,91.79
2019-06-10T15:20:53.452Z,91.66
2019-06-10T15:23:24.256Z,91.69
2019-06-10T15:25:57.064Z,91.84
2019-06-10T15:28:27.350Z,91.96
2019-06-10T15:30:57.918Z,91.75
2019-06-10T15:33:28.334Z,91.91
2019-06-10T15:35:59.069Z,92.14
2019-06-10T15:38:32.534Z,91.97
2019-06-10T15:41:02.536Z,91.83
2019-06-10T15:43:33.267Z,91.81
2019-06-10T15:46:03.942Z,92.09
2019-06-10T15:48:34.772Z,91.96
2019-06-10T15:51:05.480Z,91.74
2019-06-10T15:53:35.922Z,92.01
2019-06-10T15:56:16.896Z,91.92
2019-06-10T15:58:39.324Z,92.10
2019-06-10T16:01:12.046Z,91.95
2019-06-10T16:03:42.588Z,91.85
2019-06-10T16:06:13.894Z,91.91
2019-06-10T16:08:45.715Z,92.22
2019-06-10T16:11:18.310Z,92.21
2019-06-10T16:13:48.490Z,92.12
2019-06-10T16:16:19.318Z,92.09
2019-06-10T16:18:50.020Z,92.04
2019-06-10T16:21:21.912Z,92.06
2019-06-10T16:23:53.297Z,92.04
2019-06-10T16:26:26.780Z,92.09
2019-06-10T16:28:56.748Z,92.18
2019-06-10T16:31:27.753Z,92.24
2019-06-10T16:33:58.653Z,92.25
2019-06-10T16:36:32.129Z,92.19
2019-06-10T16:39:03.441Z,92.45
2019-06-10T16:41:35.669Z,92.39
2019-06-10T16:44:06.326Z,92.33
2019-06-10T16:46:37.048Z,92.41
2019-06-10T16:49:07.776Z,92.98
2019-06-10T16:51:38.419Z,92.86
2019-06-10T16:54:09.228Z,92.74
2019-06-10T16:56:39.887Z,92.77
2019-06-10T16:59:12.316Z,92.60
2019-06-10T17:01:43.954Z,92.70
2019-06-10T17:04:14.845Z,92.80
2019-06-10T17:06:45.461Z,92.91
2019-06-10T17:09:16.408Z,92.57
2019-06-10T17:11:47.105Z,92.55
2019-06-10T17:14:20.077Z,92.64
2019-06-10T17:16:52.803Z,92.72
2019-06-10T17:19:26.692Z,92.81
2019-06-10T17:21:55.769Z,92.83
2019-06-10T17:24:27.669Z,92.95
2019-06-10T17:26:58.561Z,92.97
2019-06-10T17:29:30.616Z,92.94
2019-06-10T17:32:02.811Z,92.88
2019-06-10T17:34:34.165Z,92.79
2019-06-10T17:37:05.407Z,92.91
2019-06-10T17:39:36.093Z,92.83
2019-06-10T17:42:17.471Z,92.97
2019-06-10T17:44:47.996Z,92.96
2019-06-10T17:47:18.890Z,93.02
2019-06-10T17:49:50.058Z,93.06
2019-06-10T17:52:21.955Z,93.21
2019-06-10T17:54:54.362Z,93.37
2019-06-10T17:57:27.086Z,93.24
2019-06-10T17:59:59.455Z,93.30
2019-06-10T18:02:31.201Z,93.25
2019-06-10T18:05:03.217Z,93.30
2019-06-10T18:07:35.757Z,93.26
2019-06-10T18:10:07.182Z,93.30
2019-06-10T18:12:37.728Z,93.28
2019-06-10T18:15:08.594Z,93.32
2019-06-10T18:17:39.528Z,93.66
2019-06-10T18:20:13.340Z,94.19
2019-06-10T18:22:42.584Z,94.09
2019-06-10T18:25:13.382Z,93.90
2019-06-10T18:27:45.424Z,93.60
2019-06-10T18:30:16.508Z,93.63
2019-06-10T18:32:47.171Z,93.54
2019-06-10T18:35:18.034Z,93.62
2019-06-10T18:37:48.764Z,93.62
2019-06-10T18:40:20.442Z,93.63
2019-06-10T18:42:52.289Z,93.99
2019-06-10T18:45:23.302Z,93.73
2019-06-10T18:47:54.076Z,93.79
2019-06-10T18:50:26.231Z,94.13
2019-06-10T18:53:00.360Z,93.99
2019-06-10T18:55:34.172Z,93.88
2019-06-10T18:58:03.767Z,93.80
2019-06-10T19:00:53.496Z,94.03
2019-06-10T19:03:12.475Z,94.20
2019-06-10T19:05:39.464Z,94.19
2019-06-10T19:08:10.311Z,94.29
2019-06-10T19:10:43.182Z,94.69
2019-06-10T19:13:13.492Z,94.59
2019-06-10T19:15:44.857Z,94.53
2019-06-10T19:18:15.681Z,94.68
2019-06-10T19:20:46.328Z,94.87
2019-06-10T19:23:17.389Z,95.02
2019-06-10T19:25:48.300Z,95.04
2019-06-10T19:28:19.124Z,95.27
2019-06-10T19:30:49.697Z,95.29
2019-06-10T19:33:23.230Z,95.40
2019-06-10T19:35:53.391Z,95.27
2019-06-10T19:38:23.989Z,95.33
2019-06-10T19:40:55.001Z,95.31
2019-06-10T19:43:25.651Z,95.26
2019-06-10T19:45:56.160Z,95.28
2019-06-10T19:48:26.867Z,95.37
2019-06-10T19:50:57.450Z,95.31
2019-06-10T19:53:27.950Z,95.29
2019-06-10T19:55:58.509Z,95.12
2019-06-10T19:58:32.350Z,95.05
2019-06-10T20:01:05.809Z,94.83
2019-06-10T20:03:37.658Z,95.08
2019-06-10T20:06:08.387Z,95.09
2019-06-10T20:08:40.026Z,95.20
2019-06-10T20:11:12.380Z,95.28
2019-06-10T20:13:43.717Z,95.32
2019-06-10T20:16:16.771Z,95.33
2019-06-10T20:18:49.682Z,95.29
2019-06-10T20:21:22.568Z,95.00
2019-06-10T20:23:52.991Z,95.04
2019-06-10T20:26:23.701Z,95.00
2019-06-10T20:28:55.431Z,94.99
2019-06-10T20:31:26.165Z,94.96
2019-06-10T20:33:56.974Z,94.93
2019-06-10T20:36:27.541Z,94.76
2019-06-10T20:38:58.078Z,94.80
2019-06-10T20:41:28.793Z,94.73
2019-06-10T20:43:59.352Z,94.85
2019-06-10T20:46:32.248Z,95.02
2019-06-10T20:49:03.333Z,95.12
2019-06-10T20:51:48.687Z,95.11
2019-06-10T20:54:07.057Z,94.79
2019-06-10T20:56:38.614Z,95.00
2019-06-10T20:59:09.164Z,95.15
2019-06-10T21:01:43.252Z,95.12
2019-06-10T21:04:13.263Z,95.19
2019-06-10T21:06:45.958Z,95.39
2019-06-10T21:09:22.479Z,95.48
2019-06-10T21:11:54.365Z,95.20
2019-06-10T21:14:25.417Z,95.12
2019-06-10T21:16:56.171Z,94.44
2019-06-10T21:19:27.413Z,94.36
2019-06-10T21:21:57.970Z,93.40
2019-06-10T21:24:28.689Z,93.85
2019-06-10T21:26:59.429Z,94.03
2019-06-10T21:29:32.180Z,94.12
2019-06-10T21:32:03.747Z,93.67
2019-06-10T21:34:34.346Z,92.01
2019-06-10T21:37:04.865Z,92.61
2019-06-10T21:39:35.275Z,93.06
2019-06-10T21:42:05.789Z,93.64
2019-06-10T21:44:36.412Z,94.45
2019-06-10T21:47:07.205Z,94.32
2019-06-10T21:49:37.790Z,94.34
2019-06-10T21:52:08.528Z,94.19
2019-06-10T21:54:39.144Z,94.27
2019-06-10T21:57:09.701Z,94.42
2019-06-10T21:59:43.900Z,94.25
2019-06-10T22:02:15.206Z,94.37
2019-06-10T22:04:46.674Z,94.39
2019-06-10T22:07:18.385Z,94.58
2019-06-10T22:09:53.140Z,94.62
2019-06-10T22:12:23.097Z,94.58
2019-06-10T22:14:54.664Z,94.62
2019-06-10T22:17:25.318Z,94.85
2019-06-10T22:19:56.454Z,95.03
2019-06-10T22:22:26.992Z,95.00
2019-06-10T22:24:57.699Z,94.98
2019-06-10T22:27:28.448Z,95.23
2019-06-10T22:29:59.126Z,95.30
2019-06-10T22:32:32.235Z,95.23
2019-06-10T22:35:02.992Z,95.17
2019-06-10T22:37:33.952Z,95.09
2019-06-10T22:40:04.584Z,95.07
2019-06-10T22:42:35.179Z,95.06
2019-06-10T22:45:06.041Z,95.07
2019-06-10T22:47:36.521Z,95.11
2019-06-10T22:50:08.169Z,95.05
2019-06-10T22:52:38.786Z,95.10
2019-06-10T22:55:09.677Z,95.16
2019-06-10T22:57:43.976Z,95.14
2019-06-10T23:00:14.141Z,95.06
2019-06-10T23:02:44.611Z,95.08
2019-06-10T23:05:17.422Z,95.03
2019-06-10T23:07:48.250Z,95.06
2019-06-10T23:10:18.906Z,95.15
2019-06-10T23:12:50.573Z,95.06
2019-06-10T23:15:23.513Z,94.96
2019-06-10T23:17:56.745Z,95.02
2019-06-10T23:20:27.262Z,94.96
2019-06-10T23:22:59.152Z,94.84
2019-06-10T23:25:32.511Z,94.78
2019-06-10T23:28:02.259Z,94.77
2019-06-10T23:30:33.137Z,94.83
2019-06-10T23:33:03.917Z,94.89
2019-06-10T23:35:34.454Z,94.96
2019-06-10T23:38:05.406Z,95.00
2019-06-10T23:40:37.728Z,95.08
2019-06-10T23:43:08.148Z,95.20
2019-06-10T23:45:38.624Z,95.31
2019-06-10T23:48:09.025Z,95.21
2019-06-10T23:50:39.886Z,95.02
2019-06-10T23:53:13.244Z,94.92
2019-06-10T23:55:43.012Z,94.90
2019-06-10T23:58:13.744Z,95.07
